sensor_id;sensor_type;location;lat;lon;timestamp;temperature;humidity
15328;DHT22;7764;51.430;6.840;2023-01-24T00:02:28;4.40;99.90
15328;DHT22;7764;51.430;6.840;2023-01-24T00:04:54;4.40;99.90
15328;DHT22;7764;51.430;6.840;2023-01-24T00:07:21;4.30;99.90
15328;DHT22;7764;51.430;6.840;2023-01-24T00:09:48;4.30;99.90
15328;DHT22;7764;51.430;6.840;2023-01-24T00:12:15;4.30;99.90
15328;DHT22;7764;51.430;6.840;2023-01-24T00:14:42;4.30;99.90
15328;DHT22;7764;51.430;6.840;2023-01-24T00:17:09;4.30;99.90
15328;DHT22;7764;51.430;6.840;2023-01-24T00:19:38;4.30;99.90
15328;DHT22;7764;51.430;6.840;2023-01-24T00:22:05;4.30;99.90
15328;DHT22;7764;51.430;6.840;2023-01-24T00:24:32;4.30;99.90
15328;DHT22;7764;51.430;6.840;2023-01-24T00:27:00;4.30;99.90
15328;DHT22;7764;51.430;6.840;2023-01-24T00:29:27;4.20;99.90
15328;DHT22;7764;51.430;6.840;2023-01-24T00:31:54;4.30;99.90
15328;DHT22;7764;51.430;6.840;2023-01-24T00:34:21;4.20;99.90
15328;DHT22;7764;51.430;6.840;2023-01-24T00:36:49;4.30;99.90
15328;DHT22;7764;51.430;6.840;2023-01-24T00:39:16;4.20;99.90
15328;DHT22;7764;51.430;6.840;2023-01-24T00:41:43;4.20;99.90
15328;DHT22;7764;51.430;6.840;2023-01-24T00:44:10;4.20;99.90
15328;DHT22;7764;51.430;6.840;2023-01-24T00:46:37;4.20;99.90
15328;DHT22;7764;51.430;6.840;2023-01-24T00:49:03;4.20;99.90
15328;DHT22;7764;51.430;6.840;2023-01-24T00:51:30;4.20;99.90
15328;DHT22;7764;51.430;6.840;2023-01-24T00:53:58;4.20;99.90
15328;DHT22;7764;51.430;6.840;2023-01-24T00:56:25;4.20;99.90
15328;DHT22;7764;51.430;6.840;2023-01-24T00:58:52;4.20;99.90
15328;DHT22;7764;51.430;6.840;2023-01-24T01:01:19;4.20;99.90
15328;DHT22;7764;51.430;6.840;2023-01-24T01:03:46;4.20;99.90
15328;DHT22;7764;51.430;6.840;2023-01-24T01:06:15;4.10;99.90
15328;DHT22;7764;51.430;6.840;2023-01-24T01:08:42;4.10;99.90
15328;DHT22;7764;51.430;6.840;2023-01-24T01:11:10;4.10;99.90
15328;DHT22;7764;51.430;6.840;2023-01-24T01:13:37;4.10;99.90
15328;DHT22;7764;51.430;6.840;2023-01-24T01:16:06;4.10;99.90
15328;DHT22;7764;51.430;6.840;2023-01-24T01:18:34;4.10;99.90
15328;DHT22;7764;51.430;6.840;2023-01-24T01:21:02;4.10;99.90
15328;DHT22;7764;51.430;6.840;2023-01-24T01:23:29;4.10;99.90
15328;DHT22;7764;51.430;6.840;2023-01-24T01:25:59;4.10;99.90
15328;DHT22;7764;51.430;6.840;2023-01-24T01:28:27;4.10;99.90
15328;DHT22;7764;51.430;6.840;2023-01-24T01:30:54;4.10;99.90
15328;DHT22;7764;51.430;6.840;2023-01-24T01:33:22;4.10;99.90
15328;DHT22;7764;51.430;6.840;2023-01-24T01:35:49;4.10;99.90
15328;DHT22;7764;51.430;6.840;2023-01-24T01:38:17;4.20;99.90
15328;DHT22;7764;51.430;6.840;2023-01-24T01:40:44;4.20;99.90
15328;DHT22;7764;51.430;6.840;2023-01-24T01:43:13;4.20;99.90
15328;DHT22;7764;51.430;6.840;2023-01-24T01:45:44;4.10;99.90
15328;DHT22;7764;51.430;6.840;2023-01-24T01:48:22;4.20;99.90
15328;DHT22;7764;51.430;6.840;2023-01-24T01:50:55;4.10;99.90
15328;DHT22;7764;51.430;6.840;2023-01-24T01:53:27;4.10;99.90
15328;DHT22;7764;51.430;6.840;2023-01-24T01:56:00;4.10;99.90
15328;DHT22;7764;51.430;6.840;2023-01-24T01:58:29;4.10;99.90
15328;DHT22;7764;51.430;6.840;2023-01-24T02:00:58;4.10;99.90
15328;DHT22;7764;51.430;6.840;2023-01-24T02:03:29;4.10;99.90
15328;DHT22;7764;51.430;6.840;2023-01-24T02:06:15;4.10;99.90
15328;DHT22;7764;51.430;6.840;2023-01-24T02:08:44;4.10;99.90
15328;DHT22;7764;51.430;6.840;2023-01-24T02:11:13;4.10;99.90
15328;DHT22;7764;51.430;6.840;2023-01-24T02:13:59;4.10;99.90
15328;DHT22;7764;51.430;6.840;2023-01-24T02:16:46;4.10;99.90
15328;DHT22;7764;51.430;6.840;2023-01-24T02:19:20;4.10;99.90
15328;DHT22;7764;51.430;6.840;2023-01-24T02:21:54;4.10;99.90
15328;DHT22;7764;51.430;6.840;2023-01-24T02:24:27;4.10;99.90
15328;DHT22;7764;51.430;6.840;2023-01-24T02:26:59;4.10;99.90
15328;DHT22;7764;51.430;6.840;2023-01-24T02:29:26;4.10;99.90
15328;DHT22;7764;51.430;6.840;2023-01-24T02:31:55;4.00;99.90
15328;DHT22;7764;51.430;6.840;2023-01-24T02:34:23;4.10;99.90
15328;DHT22;7764;51.430;6.840;2023-01-24T02:36:52;4.00;99.90
15328;DHT22;7764;51.430;6.840;2023-01-24T02:39:24;4.00;99.90
15328;DHT22;7764;51.430;6.840;2023-01-24T02:41:55;4.00;99.90
15328;DHT22;7764;51.430;6.840;2023-01-24T02:44:29;4.00;99.90
15328;DHT22;7764;51.430;6.840;2023-01-24T02:46:57;4.10;99.90
15328;DHT22;7764;51.430;6.840;2023-01-24T02:49:24;4.10;99.90
15328;DHT22;7764;51.430;6.840;2023-01-24T02:51:51;4.10;99.90
15328;DHT22;7764;51.430;6.840;2023-01-24T02:54:35;4.00;99.90
15328;DHT22;7764;51.430;6.840;2023-01-24T02:57:02;4.00;99.90
15328;DHT22;7764;51.430;6.840;2023-01-24T02:59:47;4.00;99.90
15328;DHT22;7764;51.430;6.840;2023-01-24T03:02:14;4.10;99.90
15328;DHT22;7764;51.430;6.840;2023-01-24T03:04:41;4.10;99.90
15328;DHT22;7764;51.430;6.840;2023-01-24T03:07:08;4.10;99.90
15328;DHT22;7764;51.430;6.840;2023-01-24T03:09:35;4.10;99.90
15328;DHT22;7764;51.430;6.840;2023-01-24T03:12:06;4.10;99.90
15328;DHT22;7764;51.430;6.840;2023-01-24T03:14:51;4.00;99.90
15328;DHT22;7764;51.430;6.840;2023-01-24T03:17:36;4.00;99.90
15328;DHT22;7764;51.430;6.840;2023-01-24T03:20:20;4.00;99.90
15328;DHT22;7764;51.430;6.840;2023-01-24T03:23:04;4.00;99.90
15328;DHT22;7764;51.430;6.840;2023-01-24T03:25:53;4.00;99.90
15328;DHT22;7764;51.430;6.840;2023-01-24T03:28:37;4.00;99.90
15328;DHT22;7764;51.430;6.840;2023-01-24T03:31:23;4.00;99.90
15328;DHT22;7764;51.430;6.840;2023-01-24T03:34:07;4.00;99.90
15328;DHT22;7764;51.430;6.840;2023-01-24T03:36:52;4.00;99.90
15328;DHT22;7764;51.430;6.840;2023-01-24T03:39:19;4.00;99.90
15328;DHT22;7764;51.430;6.840;2023-01-24T03:42:05;4.00;99.90
15328;DHT22;7764;51.430;6.840;2023-01-24T03:44:32;4.00;99.90
15328;DHT22;7764;51.430;6.840;2023-01-24T03:47:00;4.00;99.90
15328;DHT22;7764;51.430;6.840;2023-01-24T03:49:27;4.00;99.90
15328;DHT22;7764;51.430;6.840;2023-01-24T03:52:12;3.90;99.90
15328;DHT22;7764;51.430;6.840;2023-01-24T03:54:51;3.90;99.90
15328;DHT22;7764;51.430;6.840;2023-01-24T03:57:18;4.00;99.90
15328;DHT22;7764;51.430;6.840;2023-01-24T03:59:44;4.00;99.90
15328;DHT22;7764;51.430;6.840;2023-01-24T04:02:13;4.00;99.90
15328;DHT22;7764;51.430;6.840;2023-01-24T04:04:39;4.00;99.90
15328;DHT22;7764;51.430;6.840;2023-01-24T04:07:23;4.00;99.90
15328;DHT22;7764;51.430;6.840;2023-01-24T04:09:50;4.00;99.90
15328;DHT22;7764;51.430;6.840;2023-01-24T04:12:17;3.90;99.90
15328;DHT22;7764;51.430;6.840;2023-01-24T04:14:44;4.00;99.90
15328;DHT22;7764;51.430;6.840;2023-01-24T04:17:12;4.00;99.90
15328;DHT22;7764;51.430;6.840;2023-01-24T04:19:39;3.90;99.90
15328;DHT22;7764;51.430;6.840;2023-01-24T04:22:06;3.90;99.90
15328;DHT22;7764;51.430;6.840;2023-01-24T04:24:32;4.00;99.90
15328;DHT22;7764;51.430;6.840;2023-01-24T04:26:59;3.90;99.90
15328;DHT22;7764;51.430;6.840;2023-01-24T04:29:26;3.90;99.90
15328;DHT22;7764;51.430;6.840;2023-01-24T04:31:53;3.90;99.90
15328;DHT22;7764;51.430;6.840;2023-01-24T04:34:21;3.90;99.90
15328;DHT22;7764;51.430;6.840;2023-01-24T04:36:48;3.90;99.90
15328;DHT22;7764;51.430;6.840;2023-01-24T04:39:15;3.90;99.90
15328;DHT22;7764;51.430;6.840;2023-01-24T04:41:41;3.80;99.90
15328;DHT22;7764;51.430;6.840;2023-01-24T04:44:08;3.80;99.90
15328;DHT22;7764;51.430;6.840;2023-01-24T04:46:35;3.80;99.90
15328;DHT22;7764;51.430;6.840;2023-01-24T04:49:02;3.80;99.90
15328;DHT22;7764;51.430;6.840;2023-01-24T04:51:31;3.80;99.90
15328;DHT22;7764;51.430;6.840;2023-01-24T04:53:57;3.80;99.90
15328;DHT22;7764;51.430;6.840;2023-01-24T04:56:24;3.80;99.90
15328;DHT22;7764;51.430;6.840;2023-01-24T04:58:51;3.80;99.90
15328;DHT22;7764;51.430;6.840;2023-01-24T05:01:18;3.80;99.90
15328;DHT22;7764;51.430;6.840;2023-01-24T05:03:45;3.80;99.90
15328;DHT22;7764;51.430;6.840;2023-01-24T05:06:12;3.80;99.90
15328;DHT22;7764;51.430;6.840;2023-01-24T05:08:40;3.80;99.90
15328;DHT22;7764;51.430;6.840;2023-01-24T05:11:07;3.90;99.90
15328;DHT22;7764;51.430;6.840;2023-01-24T05:13:33;3.80;99.90
15328;DHT22;7764;51.430;6.840;2023-01-24T05:16:02;3.80;99.90
15328;DHT22;7764;51.430;6.840;2023-01-24T05:18:29;3.80;99.90
15328;DHT22;7764;51.430;6.840;2023-01-24T05:20:56;3.80;99.90
15328;DHT22;7764;51.430;6.840;2023-01-24T05:23:29;3.80;99.90
15328;DHT22;7764;51.430;6.840;2023-01-24T05:25:59;3.90;99.90
15328;DHT22;7764;51.430;6.840;2023-01-24T05:28:27;3.90;99.90
15328;DHT22;7764;51.430;6.840;2023-01-24T05:30:57;3.90;99.90
15328;DHT22;7764;51.430;6.840;2023-01-24T05:33:24;3.90;99.90
15328;DHT22;7764;51.430;6.840;2023-01-24T05:35:57;3.90;99.90
15328;DHT22;7764;51.430;6.840;2023-01-24T05:38:24;3.90;99.90
15328;DHT22;7764;51.430;6.840;2023-01-24T05:40:51;3.80;99.90
15328;DHT22;7764;51.430;6.840;2023-01-24T05:43:19;3.80;99.90
15328;DHT22;7764;51.430;6.840;2023-01-24T05:45:46;3.80;99.90
15328;DHT22;7764;51.430;6.840;2023-01-24T05:48:13;3.80;99.90
15328;DHT22;7764;51.430;6.840;2023-01-24T05:50:39;3.80;99.90
15328;DHT22;7764;51.430;6.840;2023-01-24T05:53:06;3.80;99.90
15328;DHT22;7764;51.430;6.840;2023-01-24T05:55:33;3.80;99.90
15328;DHT22;7764;51.430;6.840;2023-01-24T05:58:00;3.90;99.90
15328;DHT22;7764;51.430;6.840;2023-01-24T06:00:28;3.80;99.90
15328;DHT22;7764;51.430;6.840;2023-01-24T06:03:01;3.80;99.90
15328;DHT22;7764;51.430;6.840;2023-01-24T06:05:28;3.80;99.90
15328;DHT22;7764;51.430;6.840;2023-01-24T06:07:54;3.90;99.90
15328;DHT22;7764;51.430;6.840;2023-01-24T06:10:21;3.90;99.90
15328;DHT22;7764;51.430;6.840;2023-01-24T06:12:48;3.90;99.90
15328;DHT22;7764;51.430;6.840;2023-01-24T06:15:15;3.90;99.90
15328;DHT22;7764;51.430;6.840;2023-01-24T06:17:43;3.90;99.90
15328;DHT22;7764;51.430;6.840;2023-01-24T06:20:11;3.90;99.90
15328;DHT22;7764;51.430;6.840;2023-01-24T06:22:44;3.80;99.90
15328;DHT22;7764;51.430;6.840;2023-01-24T06:25:19;3.80;99.90
15328;DHT22;7764;51.430;6.840;2023-01-24T06:27:47;3.80;99.90
15328;DHT22;7764;51.430;6.840;2023-01-24T06:30:15;3.90;99.90
15328;DHT22;7764;51.430;6.840;2023-01-24T06:33:00;3.80;99.90
15328;DHT22;7764;51.430;6.840;2023-01-24T06:35:33;3.90;99.90
15328;DHT22;7764;51.430;6.840;2023-01-24T06:38:03;3.90;99.90
15328;DHT22;7764;51.430;6.840;2023-01-24T06:40:30;4.00;99.90
15328;DHT22;7764;51.430;6.840;2023-01-24T06:42:57;3.90;99.90
15328;DHT22;7764;51.430;6.840;2023-01-24T06:45:24;3.90;99.90
15328;DHT22;7764;51.430;6.840;2023-01-24T06:47:52;3.90;99.90
15328;DHT22;7764;51.430;6.840;2023-01-24T06:50:21;3.90;99.90
15328;DHT22;7764;51.430;6.840;2023-01-24T06:52:49;3.90;99.90
15328;DHT22;7764;51.430;6.840;2023-01-24T06:55:16;3.90;99.90
15328;DHT22;7764;51.430;6.840;2023-01-24T06:57:43;3.90;99.90
15328;DHT22;7764;51.430;6.840;2023-01-24T07:00:13;3.90;99.90
15328;DHT22;7764;51.430;6.840;2023-01-24T07:02:39;3.90;99.90
15328;DHT22;7764;51.430;6.840;2023-01-24T07:05:08;3.90;99.90
15328;DHT22;7764;51.430;6.840;2023-01-24T07:07:35;3.90;99.90
15328;DHT22;7764;51.430;6.840;2023-01-24T07:10:03;3.90;99.90
15328;DHT22;7764;51.430;6.840;2023-01-24T07:12:30;3.90;99.90
15328;DHT22;7764;51.430;6.840;2023-01-24T07:14:57;4.00;99.90
15328;DHT22;7764;51.430;6.840;2023-01-24T07:17:24;3.90;99.90
15328;DHT22;7764;51.430;6.840;2023-01-24T07:19:52;4.00;99.90
15328;DHT22;7764;51.430;6.840;2023-01-24T07:22:21;4.00;99.90
15328;DHT22;7764;51.430;6.840;2023-01-24T07:24:48;3.90;99.90
15328;DHT22;7764;51.430;6.840;2023-01-24T07:27:16;3.90;99.90
15328;DHT22;7764;51.430;6.840;2023-01-24T07:29:43;3.90;99.90
15328;DHT22;7764;51.430;6.840;2023-01-24T07:32:09;3.90;99.90
15328;DHT22;7764;51.430;6.840;2023-01-24T07:34:36;3.90;99.90
15328;DHT22;7764;51.430;6.840;2023-01-24T07:37:05;3.90;99.90
15328;DHT22;7764;51.430;6.840;2023-01-24T07:39:33;3.90;99.90
15328;DHT22;7764;51.430;6.840;2023-01-24T07:42:00;3.90;99.90
15328;DHT22;7764;51.430;6.840;2023-01-24T07:44:27;3.90;99.90
15328;DHT22;7764;51.430;6.840;2023-01-24T07:46:54;3.80;99.90
15328;DHT22;7764;51.430;6.840;2023-01-24T07:49:23;3.80;99.90
15328;DHT22;7764;51.430;6.840;2023-01-24T07:51:51;3.80;99.90
15328;DHT22;7764;51.430;6.840;2023-01-24T07:54:18;3.80;99.90
15328;DHT22;7764;51.430;6.840;2023-01-24T07:56:47;3.90;99.90
15328;DHT22;7764;51.430;6.840;2023-01-24T07:59:13;3.90;99.90
15328;DHT22;7764;51.430;6.840;2023-01-24T08:01:40;3.90;99.90
15328;DHT22;7764;51.430;6.840;2023-01-24T08:04:07;3.90;99.90
15328;DHT22;7764;51.430;6.840;2023-01-24T08:06:34;3.90;99.90
15328;DHT22;7764;51.430;6.840;2023-01-24T08:09:02;3.90;99.90
15328;DHT22;7764;51.430;6.840;2023-01-24T08:11:28;3.80;99.90
15328;DHT22;7764;51.430;6.840;2023-01-24T08:13:57;3.90;99.90
15328;DHT22;7764;51.430;6.840;2023-01-24T08:16:23;3.90;99.90
15328;DHT22;7764;51.430;6.840;2023-01-24T08:18:51;4.00;99.90
15328;DHT22;7764;51.430;6.840;2023-01-24T08:21:18;3.90;99.90
15328;DHT22;7764;51.430;6.840;2023-01-24T08:23:45;4.00;99.90
15328;DHT22;7764;51.430;6.840;2023-01-24T08:26:12;3.90;99.90
15328;DHT22;7764;51.430;6.840;2023-01-24T08:28:39;4.00;99.90
15328;DHT22;7764;51.430;6.840;2023-01-24T08:31:07;3.90;99.90
15328;DHT22;7764;51.430;6.840;2023-01-24T08:33:34;4.00;99.90
15328;DHT22;7764;51.430;6.840;2023-01-24T08:36:04;4.00;99.90
15328;DHT22;7764;51.430;6.840;2023-01-24T08:38:30;4.00;99.90
15328;DHT22;7764;51.430;6.840;2023-01-24T08:40:57;4.00;99.90
15328;DHT22;7764;51.430;6.840;2023-01-24T08:43:24;4.00;99.90
15328;DHT22;7764;51.430;6.840;2023-01-24T08:45:54;4.10;99.90
15328;DHT22;7764;51.430;6.840;2023-01-24T08:48:22;4.10;99.90
15328;DHT22;7764;51.430;6.840;2023-01-24T08:50:49;4.10;99.90
15328;DHT22;7764;51.430;6.840;2023-01-24T08:53:16;4.10;99.90
15328;DHT22;7764;51.430;6.840;2023-01-24T08:55:43;4.10;99.90
15328;DHT22;7764;51.430;6.840;2023-01-24T08:58:10;4.10;99.90
15328;DHT22;7764;51.430;6.840;2023-01-24T09:00:37;4.10;99.90
15328;DHT22;7764;51.430;6.840;2023-01-24T09:03:03;4.10;99.90
15328;DHT22;7764;51.430;6.840;2023-01-24T09:05:32;4.10;99.90
15328;DHT22;7764;51.430;6.840;2023-01-24T09:07:59;4.10;99.90
15328;DHT22;7764;51.430;6.840;2023-01-24T09:10:26;4.10;99.90
15328;DHT22;7764;51.430;6.840;2023-01-24T09:12:53;4.10;99.90
15328;DHT22;7764;51.430;6.840;2023-01-24T09:15:20;4.10;99.90
15328;DHT22;7764;51.430;6.840;2023-01-24T09:17:46;4.10;99.90
15328;DHT22;7764;51.430;6.840;2023-01-24T09:20:13;4.10;99.90
15328;DHT22;7764;51.430;6.840;2023-01-24T09:22:42;4.20;99.90
15328;DHT22;7764;51.430;6.840;2023-01-24T09:25:09;4.10;99.90
15328;DHT22;7764;51.430;6.840;2023-01-24T09:27:36;4.20;99.90
15328;DHT22;7764;51.430;6.840;2023-01-24T09:30:04;4.20;99.90
15328;DHT22;7764;51.430;6.840;2023-01-24T09:32:31;4.20;99.90
15328;DHT22;7764;51.430;6.840;2023-01-24T09:34:58;4.20;99.90
15328;DHT22;7764;51.430;6.840;2023-01-24T09:37:25;4.30;99.90
15328;DHT22;7764;51.430;6.840;2023-01-24T09:39:53;4.30;99.90
15328;DHT22;7764;51.430;6.840;2023-01-24T09:42:27;4.20;99.90
15328;DHT22;7764;51.430;6.840;2023-01-24T09:45:07;4.30;99.90
15328;DHT22;7764;51.430;6.840;2023-01-24T09:47:42;4.30;99.90
15328;DHT22;7764;51.430;6.840;2023-01-24T09:50:15;4.30;99.90
15328;DHT22;7764;51.430;6.840;2023-01-24T09:52:44;4.40;99.90
15328;DHT22;7764;51.430;6.840;2023-01-24T09:55:16;4.40;99.90
15328;DHT22;7764;51.430;6.840;2023-01-24T09:57:51;4.40;99.90
15328;DHT22;7764;51.430;6.840;2023-01-24T10:00:24;4.40;99.90
15328;DHT22;7764;51.430;6.840;2023-01-24T10:02:52;4.40;99.90
15328;DHT22;7764;51.430;6.840;2023-01-24T10:05:20;4.50;99.90
15328;DHT22;7764;51.430;6.840;2023-01-24T10:08:03;4.50;99.90
15328;DHT22;7764;51.430;6.840;2023-01-24T10:10:43;4.50;99.90
15328;DHT22;7764;51.430;6.840;2023-01-24T10:13:20;4.50;99.90
15328;DHT22;7764;51.430;6.840;2023-01-24T10:15:55;4.50;99.90
15328;DHT22;7764;51.430;6.840;2023-01-24T10:18:42;4.50;99.90
15328;DHT22;7764;51.430;6.840;2023-01-24T10:21:21;4.50;99.90
15328;DHT22;7764;51.430;6.840;2023-01-24T10:23:52;4.50;99.90
15328;DHT22;7764;51.430;6.840;2023-01-24T10:26:24;4.50;99.90
15328;DHT22;7764;51.430;6.840;2023-01-24T10:28:55;4.60;99.90
15328;DHT22;7764;51.430;6.840;2023-01-24T10:31:25;4.60;99.90
15328;DHT22;7764;51.430;6.840;2023-01-24T10:33:56;4.70;99.90
15328;DHT22;7764;51.430;6.840;2023-01-24T10:36:33;4.60;99.90
15328;DHT22;7764;51.430;6.840;2023-01-24T10:39:03;4.70;99.90
15328;DHT22;7764;51.430;6.840;2023-01-24T10:41:32;4.70;99.90
15328;DHT22;7764;51.430;6.840;2023-01-24T10:44:02;4.70;99.90
15328;DHT22;7764;51.430;6.840;2023-01-24T10:46:47;4.70;99.90
15328;DHT22;7764;51.430;6.840;2023-01-24T10:49:23;4.80;99.90
15328;DHT22;7764;51.430;6.840;2023-01-24T10:52:11;4.90;99.90
15328;DHT22;7764;51.430;6.840;2023-01-24T10:54:47;5.00;99.90
15328;DHT22;7764;51.430;6.840;2023-01-24T10:57:27;5.00;99.90
15328;DHT22;7764;51.430;6.840;2023-01-24T10:59:55;4.90;99.90
15328;DHT22;7764;51.430;6.840;2023-01-24T11:02:30;4.80;99.90
15328;DHT22;7764;51.430;6.840;2023-01-24T11:04:59;4.80;99.90
15328;DHT22;7764;51.430;6.840;2023-01-24T11:07:28;4.70;99.90
15328;DHT22;7764;51.430;6.840;2023-01-24T11:09:59;4.80;99.90
15328;DHT22;7764;51.430;6.840;2023-01-24T11:12:28;4.70;99.90
15328;DHT22;7764;51.430;6.840;2023-01-24T11:14:55;4.70;99.90
15328;DHT22;7764;51.430;6.840;2023-01-24T11:17:34;4.80;99.90
15328;DHT22;7764;51.430;6.840;2023-01-24T11:20:15;4.70;99.90
15328;DHT22;7764;51.430;6.840;2023-01-24T11:22:49;4.70;99.90
15328;DHT22;7764;51.430;6.840;2023-01-24T11:25:17;4.80;99.90
15328;DHT22;7764;51.430;6.840;2023-01-24T11:27:49;4.80;99.90
15328;DHT22;7764;51.430;6.840;2023-01-24T11:30:17;4.80;99.90
15328;DHT22;7764;51.430;6.840;2023-01-24T11:32:52;4.80;99.90
15328;DHT22;7764;51.430;6.840;2023-01-24T11:35:23;4.70;99.90
15328;DHT22;7764;51.430;6.840;2023-01-24T11:38:04;4.80;99.90
15328;DHT22;7764;51.430;6.840;2023-01-24T11:40:38;4.80;99.90
15328;DHT22;7764;51.430;6.840;2023-01-24T11:46:21;4.80;99.90
15328;DHT22;7764;51.430;6.840;2023-01-24T11:48:53;4.80;99.90
15328;DHT22;7764;51.430;6.840;2023-01-24T11:51:29;4.80;99.90
15328;DHT22;7764;51.430;6.840;2023-01-24T11:54:09;4.90;99.90
15328;DHT22;7764;51.430;6.840;2023-01-24T11:56:44;4.90;99.90
15328;DHT22;7764;51.430;6.840;2023-01-24T11:59:40;5.00;99.90
15328;DHT22;7764;51.430;6.840;2023-01-24T12:02:23;5.10;99.90
15328;DHT22;7764;51.430;6.840;2023-01-24T12:05:09;5.10;99.90
15328;DHT22;7764;51.430;6.840;2023-01-24T12:07:46;5.00;99.90
15328;DHT22;7764;51.430;6.840;2023-01-24T12:10:22;5.10;99.90
15328;DHT22;7764;51.430;6.840;2023-01-24T12:12:59;5.10;99.90
15328;DHT22;7764;51.430;6.840;2023-01-24T12:15:38;5.20;99.90
15328;DHT22;7764;51.430;6.840;2023-01-24T12:18:34;5.20;99.90
15328;DHT22;7764;51.430;6.840;2023-01-24T12:21:05;5.20;99.90
15328;DHT22;7764;51.430;6.840;2023-01-24T12:23:40;5.20;99.90
15328;DHT22;7764;51.430;6.840;2023-01-24T12:26:11;5.20;99.90
15328;DHT22;7764;51.430;6.840;2023-01-24T12:28:44;5.30;99.90
15328;DHT22;7764;51.430;6.840;2023-01-24T12:31:17;5.50;99.90
15328;DHT22;7764;51.430;6.840;2023-01-24T12:33:52;5.50;99.90
15328;DHT22;7764;51.430;6.840;2023-01-24T12:36:29;5.40;99.90
15328;DHT22;7764;51.430;6.840;2023-01-24T12:39:01;5.40;99.90
15328;DHT22;7764;51.430;6.840;2023-01-24T12:41:32;5.40;99.90
15328;DHT22;7764;51.430;6.840;2023-01-24T12:44:04;5.30;99.90
15328;DHT22;7764;51.430;6.840;2023-01-24T12:46:39;5.20;99.90
15328;DHT22;7764;51.430;6.840;2023-01-24T12:49:19;5.10;99.90
15328;DHT22;7764;51.430;6.840;2023-01-24T12:51:55;5.00;99.90
15328;DHT22;7764;51.430;6.840;2023-01-24T12:54:30;5.10;99.90
15328;DHT22;7764;51.430;6.840;2023-01-24T12:57:02;5.00;99.90
15328;DHT22;7764;51.430;6.840;2023-01-24T12:59:31;4.90;99.90
15328;DHT22;7764;51.430;6.840;2023-01-24T13:02:23;5.00;99.90
15328;DHT22;7764;51.430;6.840;2023-01-24T13:04:59;5.00;99.90
15328;DHT22;7764;51.430;6.840;2023-01-24T13:07:39;5.00;99.90
15328;DHT22;7764;51.430;6.840;2023-01-24T13:10:16;5.00;99.90
15328;DHT22;7764;51.430;6.840;2023-01-24T13:12:44;5.00;99.90
15328;DHT22;7764;51.430;6.840;2023-01-24T13:15:17;5.00;99.90
15328;DHT22;7764;51.430;6.840;2023-01-24T13:18:03;5.00;99.90
15328;DHT22;7764;51.430;6.840;2023-01-24T13:20:49;5.00;99.90
15328;DHT22;7764;51.430;6.840;2023-01-24T13:23:46;5.10;99.90
15328;DHT22;7764;51.430;6.840;2023-01-24T13:27:00;5.20;99.90
15328;DHT22;7764;51.430;6.840;2023-01-24T13:29:51;5.10;99.90
15328;DHT22;7764;51.430;6.840;2023-01-24T13:32:24;5.10;99.90
15328;DHT22;7764;51.430;6.840;2023-01-24T13:34:53;5.00;99.90
15328;DHT22;7764;51.430;6.840;2023-01-24T13:37:24;5.00;99.90
15328;DHT22;7764;51.430;6.840;2023-01-24T13:40:00;5.10;99.90
15328;DHT22;7764;51.430;6.840;2023-01-24T13:42:34;5.10;99.90
15328;DHT22;7764;51.430;6.840;2023-01-24T13:51:44;5.10;99.90
15328;DHT22;7764;51.430;6.840;2023-01-24T13:54:33;4.90;99.90
15328;DHT22;7764;51.430;6.840;2023-01-24T13:57:26;4.90;99.90
15328;DHT22;7764;51.430;6.840;2023-01-24T14:00:17;4.90;99.90
15328;DHT22;7764;51.430;6.840;2023-01-24T14:03:01;5.00;99.90
15328;DHT22;7764;51.430;6.840;2023-01-24T14:05:43;5.10;99.90
15328;DHT22;7764;51.430;6.840;2023-01-24T14:08:34;5.10;99.90
15328;DHT22;7764;51.430;6.840;2023-01-24T14:11:31;5.10;99.90
15328;DHT22;7764;51.430;6.840;2023-01-24T14:16:59;5.10;99.90
15328;DHT22;7764;51.430;6.840;2023-01-24T14:19:30;5.00;99.90
15328;DHT22;7764;51.430;6.840;2023-01-24T14:22:02;5.00;99.90
15328;DHT22;7764;51.430;6.840;2023-01-24T14:24:32;5.10;99.90
15328;DHT22;7764;51.430;6.840;2023-01-24T14:27:15;5.10;99.90
15328;DHT22;7764;51.430;6.840;2023-01-24T14:29:45;5.00;99.90
15328;DHT22;7764;51.430;6.840;2023-01-24T14:32:20;4.90;99.90
15328;DHT22;7764;51.430;6.840;2023-01-24T14:34:51;4.80;99.90
15328;DHT22;7764;51.430;6.840;2023-01-24T14:37:20;4.80;99.90
15328;DHT22;7764;51.430;6.840;2023-01-24T14:39:47;4.80;99.90
15328;DHT22;7764;51.430;6.840;2023-01-24T14:42:16;4.80;99.90
15328;DHT22;7764;51.430;6.840;2023-01-24T14:44:50;4.80;99.90
15328;DHT22;7764;51.430;6.840;2023-01-24T14:47:19;4.80;99.90
15328;DHT22;7764;51.430;6.840;2023-01-24T14:49:48;4.80;99.90
15328;DHT22;7764;51.430;6.840;2023-01-24T14:52:18;4.60;99.90
15328;DHT22;7764;51.430;6.840;2023-01-24T14:54:47;4.60;99.90
15328;DHT22;7764;51.430;6.840;2023-01-24T14:57:25;4.70;99.90
15328;DHT22;7764;51.430;6.840;2023-01-24T15:00:06;4.60;99.90
15328;DHT22;7764;51.430;6.840;2023-01-24T15:02:51;4.60;99.90
15328;DHT22;7764;51.430;6.840;2023-01-24T15:05:26;4.50;99.90
15328;DHT22;7764;51.430;6.840;2023-01-24T15:07:54;4.50;99.90
15328;DHT22;7764;51.430;6.840;2023-01-24T15:10:25;4.50;99.90
15328;DHT22;7764;51.430;6.840;2023-01-24T15:12:55;4.50;99.90
15328;DHT22;7764;51.430;6.840;2023-01-24T15:15:24;4.50;99.90
15328;DHT22;7764;51.430;6.840;2023-01-24T15:17:57;4.40;99.90
15328;DHT22;7764;51.430;6.840;2023-01-24T15:20:25;4.40;99.90
15328;DHT22;7764;51.430;6.840;2023-01-24T15:22:54;4.30;99.90
15328;DHT22;7764;51.430;6.840;2023-01-24T15:25:25;4.30;99.90
15328;DHT22;7764;51.430;6.840;2023-01-24T15:27:53;4.40;99.90
15328;DHT22;7764;51.430;6.840;2023-01-24T15:30:23;4.40;99.90
15328;DHT22;7764;51.430;6.840;2023-01-24T15:32:59;4.40;99.90
15328;DHT22;7764;51.430;6.840;2023-01-24T15:35:32;4.40;99.90
15328;DHT22;7764;51.430;6.840;2023-01-24T15:38:12;4.40;99.90
15328;DHT22;7764;51.430;6.840;2023-01-24T15:40:50;4.30;99.90
15328;DHT22;7764;51.430;6.840;2023-01-24T15:43:21;4.20;99.90
15328;DHT22;7764;51.430;6.840;2023-01-24T15:46:06;4.20;99.90
15328;DHT22;7764;51.430;6.840;2023-01-24T15:48:58;4.20;99.90
15328;DHT22;7764;51.430;6.840;2023-01-24T15:51:31;4.20;99.90
15328;DHT22;7764;51.430;6.840;2023-01-24T15:53:58;4.20;99.90
15328;DHT22;7764;51.430;6.840;2023-01-24T15:56:25;4.20;99.90
15328;DHT22;7764;51.430;6.840;2023-01-24T15:58:55;4.20;99.90
15328;DHT22;7764;51.430;6.840;2023-01-24T16:01:27;4.20;99.90
15328;DHT22;7764;51.430;6.840;2023-01-24T16:03:56;4.20;99.90
15328;DHT22;7764;51.430;6.840;2023-01-24T16:06:25;4.20;99.90
15328;DHT22;7764;51.430;6.840;2023-01-24T16:08:52;4.10;99.90
15328;DHT22;7764;51.430;6.840;2023-01-24T16:11:19;4.10;99.90
15328;DHT22;7764;51.430;6.840;2023-01-24T16:13:48;4.00;99.90
15328;DHT22;7764;51.430;6.840;2023-01-24T16:16:22;4.00;99.90
15328;DHT22;7764;51.430;6.840;2023-01-24T16:18:49;4.00;99.90
15328;DHT22;7764;51.430;6.840;2023-01-24T16:21:16;4.00;99.90
15328;DHT22;7764;51.430;6.840;2023-01-24T16:23:43;4.00;99.90
15328;DHT22;7764;51.430;6.840;2023-01-24T16:26:18;3.90;99.90
15328;DHT22;7764;51.430;6.840;2023-01-24T16:28:45;3.90;99.90
15328;DHT22;7764;51.430;6.840;2023-01-24T16:31:12;4.00;99.90
15328;DHT22;7764;51.430;6.840;2023-01-24T16:33:40;4.00;99.90
15328;DHT22;7764;51.430;6.840;2023-01-24T16:36:09;4.00;99.90
15328;DHT22;7764;51.430;6.840;2023-01-24T16:38:37;3.90;99.90
15328;DHT22;7764;51.430;6.840;2023-01-24T16:41:04;3.90;99.90
15328;DHT22;7764;51.430;6.840;2023-01-24T16:43:31;3.80;99.90